N8167F PANC-PADQ
Flight info
| Callsign | N8167F |
|---|---|
| Flight time | 0h 44m |
| Altitude | 32000 |
| Route | YUKLA ODK |
| Aircraft | B736/M-VGDW/C |
Departure
| Time | 2026-05-07 17:40 |
|---|---|
| Airport | Ted Stevens Anchorage International Airport (PANC) |
Arrival
| Time | 2026-05-07 18:24 |
|---|---|
| Airport | Kodiak Airport (PADQ) |
| Time | Latitude | Longitude | Altitude | Speed | Heading |
|---|---|---|---|---|---|
| 2026-05-07 17:26 | 61.16430 | -149.98265 | 121 ft | 0 kts | 161° |
| 2026-05-07 17:32 | 61.16429 | -149.98264 | 121 ft | 1 kts | 161° |
| 2026-05-07 17:33 | 61.16417 | -149.98231 | 116 ft | 6 kts | 73° |
| 2026-05-07 17:33 | 61.16413 | -149.98222 | 116 ft | 1 kts | 150° |
| 2026-05-07 17:33 | 61.16410 | -149.98314 | 118 ft | 15 kts | 300° |
| 2026-05-07 17:33 | 61.16528 | -149.98462 | 116 ft | 23 kts | 343° |
| 2026-05-07 17:34 | 61.16689 | -149.98588 | 117 ft | 26 kts | 340° |
| 2026-05-07 17:34 | 61.16822 | -149.98541 | 115 ft | 21 kts | 38° |
| 2026-05-07 17:34 | 61.16958 | -149.98582 | 120 ft | 22 kts | 340° |
| 2026-05-07 17:34 | 61.17103 | -149.98718 | 115 ft | 24 kts | 308° |
| 2026-05-07 17:35 | 61.17124 | -149.99040 | 120 ft | 22 kts | 271° |
| 2026-05-07 17:35 | 61.17127 | -149.99350 | 119 ft | 16 kts | 271° |
| 2026-05-07 17:35 | 61.17126 | -149.99601 | 119 ft | 19 kts | 266° |
| 2026-05-07 17:35 | 61.17125 | -149.99643 | 119 ft | 0 kts | 268° |
| 2026-05-07 17:36 | 61.17124 | -149.99709 | 120 ft | 12 kts | 268° |
| 2026-05-07 17:36 | 61.17123 | -149.99959 | 118 ft | 20 kts | 270° |
| 2026-05-07 17:36 | 61.17123 | -150.00256 | 119 ft | 22 kts | 272° |
| 2026-05-07 17:36 | 61.17121 | -150.00584 | 117 ft | 24 kts | 266° |
| 2026-05-07 17:37 | 61.17105 | -150.00872 | 118 ft | 15 kts | 208° |
| 2026-05-07 17:37 | 61.17069 | -150.00874 | 117 ft | 0 kts | 155° |
| 2026-05-07 17:37 | 61.17069 | -150.00873 | 117 ft | 1 kts | 155° |
| 2026-05-07 17:37 | 61.17028 | -150.00834 | 119 ft | 10 kts | 154° |
| 2026-05-07 17:38 | 61.16977 | -150.00718 | 117 ft | 14 kts | 95° |
| 2026-05-07 17:38 | 61.16977 | -150.00638 | 122 ft | 0 kts | 92° |
| 2026-05-07 17:38 | 61.16977 | -150.00624 | 122 ft | 2 kts | 92° |
| 2026-05-07 17:38 | 61.16977 | -150.00590 | 119 ft | 0 kts | 91° |
| 2026-05-07 17:39 | 61.16980 | -150.00402 | 120 ft | 46 kts | 88° |
| 2026-05-07 17:39 | 61.16979 | -149.99146 | 122 ft | 125 kts | 90° |
| 2026-05-07 17:39 | 61.16964 | -149.96921 | 279 ft | 174 kts | 92° |
| 2026-05-07 17:40 | 61.16921 | -149.94228 | 809 ft | 203 kts | 98° |
| 2026-05-07 17:40 | 61.16268 | -149.91456 | 1187 ft | 231 kts | 138° |
| 2026-05-07 17:40 | 61.14861 | -149.89802 | 2228 ft | 233 kts | 156° |
| 2026-05-07 17:40 | 61.13362 | -149.88396 | 3262 ft | 242 kts | 156° |
| 2026-05-07 17:41 | 61.11816 | -149.86940 | 4387 ft | 239 kts | 159° |
| 2026-05-07 17:41 | 61.10178 | -149.86512 | 5428 ft | 245 kts | 192° |
| 2026-05-07 17:41 | 61.08667 | -149.88183 | 6345 ft | 252 kts | 216° |
| 2026-05-07 17:41 | 61.07247 | -149.90348 | 7243 ft | 255 kts | 214° |
| 2026-05-07 17:42 | 61.05790 | -149.92481 | 8150 ft | 258 kts | 214° |
| 2026-05-07 17:42 | 61.04313 | -149.94610 | 9035 ft | 260 kts | 213° |
| 2026-05-07 17:42 | 61.02814 | -149.96748 | 9924 ft | 263 kts | 213° |
| 2026-05-07 17:42 | 61.01288 | -149.98906 | 10578 ft | 273 kts | 214° |
| 2026-05-07 17:43 | 60.99641 | -150.01219 | 10764 ft | 299 kts | 214° |
| 2026-05-07 17:43 | 60.97855 | -150.03719 | 10963 ft | 322 kts | 214° |
| 2026-05-07 17:43 | 60.95956 | -150.06330 | 11135 ft | 343 kts | 212° |
| 2026-05-07 17:43 | 60.93752 | -150.08509 | 11470 ft | 359 kts | 202° |
| 2026-05-07 17:44 | 60.91402 | -150.10346 | 12156 ft | 363 kts | 201° |
| 2026-05-07 17:44 | 60.89027 | -150.12173 | 12837 ft | 366 kts | 201° |
| 2026-05-07 17:44 | 60.86629 | -150.14014 | 13493 ft | 370 kts | 202° |
| 2026-05-07 17:44 | 60.84206 | -150.15882 | 14110 ft | 373 kts | 202° |
| 2026-05-07 17:45 | 60.81769 | -150.17768 | 14678 ft | 375 kts | 202° |
| 2026-05-07 17:45 | 60.79320 | -150.19668 | 15251 ft | 378 kts | 202° |
| 2026-05-07 17:45 | 60.76857 | -150.21584 | 15815 ft | 380 kts | 203° |
| 2026-05-07 17:45 | 60.74376 | -150.23513 | 16376 ft | 383 kts | 203° |
| 2026-05-07 17:46 | 60.71873 | -150.25457 | 16885 ft | 385 kts | 203° |
| 2026-05-07 17:46 | 60.69353 | -150.27413 | 17327 ft | 390 kts | 203° |
| 2026-05-07 17:46 | 60.66809 | -150.29385 | 17844 ft | 392 kts | 203° |
| 2026-05-07 17:46 | 60.64252 | -150.31364 | 18373 ft | 394 kts | 204° |
| 2026-05-07 17:47 | 60.61682 | -150.33349 | 18803 ft | 396 kts | 204° |
| 2026-05-07 17:47 | 60.59094 | -150.35345 | 19220 ft | 399 kts | 204° |
| 2026-05-07 17:47 | 60.56496 | -150.37345 | 19640 ft | 401 kts | 204° |
| 2026-05-07 17:47 | 60.53881 | -150.39356 | 20057 ft | 403 kts | 204° |
| 2026-05-07 17:48 | 60.51251 | -150.41373 | 20458 ft | 405 kts | 204° |
| 2026-05-07 17:48 | 60.48602 | -150.43402 | 20854 ft | 407 kts | 204° |
| 2026-05-07 17:48 | 60.45942 | -150.45436 | 21249 ft | 410 kts | 204° |
| 2026-05-07 17:48 | 60.43295 | -150.47457 | 21632 ft | 414 kts | 204° |
| 2026-05-07 17:49 | 60.40588 | -150.49521 | 22078 ft | 417 kts | 204° |
| 2026-05-07 17:49 | 60.37863 | -150.51593 | 22572 ft | 419 kts | 204° |
| 2026-05-07 17:49 | 60.35123 | -150.53672 | 23044 ft | 422 kts | 204° |
| 2026-05-07 17:49 | 60.32354 | -150.55772 | 23342 ft | 428 kts | 204° |
| 2026-05-07 17:50 | 60.29557 | -150.57890 | 23737 ft | 431 kts | 204° |
| 2026-05-07 17:50 | 60.26743 | -150.60014 | 24142 ft | 432 kts | 204° |
| 2026-05-07 17:50 | 60.23920 | -150.62140 | 24570 ft | 433 kts | 204° |
| 2026-05-07 17:50 | 60.21091 | -150.64282 | 24949 ft | 435 kts | 204° |
| 2026-05-07 17:51 | 60.18257 | -150.66448 | 25308 ft | 437 kts | 204° |
| 2026-05-07 17:51 | 60.15403 | -150.68637 | 25619 ft | 440 kts | 204° |
| 2026-05-07 17:51 | 60.12533 | -150.70836 | 25898 ft | 444 kts | 204° |
| 2026-05-07 17:51 | 60.09641 | -150.73048 | 26246 ft | 446 kts | 204° |
| 2026-05-07 17:52 | 60.06739 | -150.75259 | 26611 ft | 447 kts | 204° |
| 2026-05-07 17:52 | 60.03827 | -150.77472 | 26964 ft | 448 kts | 204° |
| 2026-05-07 17:52 | 60.00921 | -150.79675 | 27386 ft | 447 kts | 204° |
| 2026-05-07 17:52 | 59.98059 | -150.81838 | 27867 ft | 444 kts | 204° |
| 2026-05-07 17:53 | 59.95171 | -150.84017 | 28373 ft | 442 kts | 204° |
| 2026-05-07 17:53 | 59.92300 | -150.86179 | 28861 ft | 441 kts | 204° |
| 2026-05-07 17:53 | 59.89437 | -150.88332 | 29324 ft | 439 kts | 204° |
| 2026-05-07 17:53 | 59.86578 | -150.90480 | 29760 ft | 439 kts | 204° |
| 2026-05-07 17:54 | 59.83726 | -150.92618 | 30226 ft | 437 kts | 204° |
| 2026-05-07 17:54 | 59.80884 | -150.94744 | 30614 ft | 436 kts | 204° |
| 2026-05-07 17:54 | 59.78037 | -150.96871 | 30938 ft | 437 kts | 204° |
| 2026-05-07 17:54 | 59.75189 | -150.98995 | 31239 ft | 438 kts | 204° |
| 2026-05-07 17:55 | 59.72338 | -151.01117 | 31576 ft | 438 kts | 204° |
| 2026-05-07 17:55 | 59.69489 | -151.03233 | 31914 ft | 437 kts | 204° |
| 2026-05-07 17:55 | 59.66635 | -151.05349 | 32134 ft | 440 kts | 204° |
| 2026-05-07 17:55 | 59.63762 | -151.07477 | 32118 ft | 442 kts | 204° |
| 2026-05-07 17:56 | 59.58017 | -151.11715 | 32114 ft | 438 kts | 203° |
| 2026-05-07 17:56 | 59.52318 | -151.15904 | 32111 ft | 437 kts | 203° |
| 2026-05-07 17:57 | 59.47585 | -151.19372 | 32120 ft | 436 kts | 203° |
| 2026-05-07 17:57 | 59.40976 | -151.24201 | 32124 ft | 436 kts | 203° |
| 2026-05-07 17:58 | 59.35283 | -151.28346 | 32110 ft | 436 kts | 203° |
| 2026-05-07 17:58 | 59.29594 | -151.32470 | 32102 ft | 436 kts | 203° |
| 2026-05-07 17:59 | 59.23905 | -151.36578 | 32117 ft | 436 kts | 203° |
| 2026-05-07 17:59 | 59.18208 | -151.40678 | 32102 ft | 436 kts | 203° |
| 2026-05-07 18:00 | 59.12517 | -151.44759 | 32108 ft | 436 kts | 203° |
| 2026-05-07 18:00 | 59.06826 | -151.48826 | 32101 ft | 436 kts | 203° |
| 2026-05-07 18:01 | 59.01136 | -151.52879 | 32104 ft | 436 kts | 203° |
| 2026-05-07 18:01 | 58.95436 | -151.56923 | 32097 ft | 436 kts | 203° |
| 2026-05-07 18:02 | 58.86909 | -151.62947 | 32090 ft | 433 kts | 203° |
| 2026-05-07 18:03 | 58.81250 | -151.66927 | 32100 ft | 432 kts | 203° |
| 2026-05-07 18:03 | 58.75594 | -151.70893 | 32091 ft | 432 kts | 202° |
| 2026-05-07 18:04 | 58.69980 | -151.74815 | 32097 ft | 432 kts | 202° |
| 2026-05-07 18:04 | 58.64325 | -151.78752 | 32095 ft | 432 kts | 202° |
| 2026-05-07 18:05 | 58.58664 | -151.82679 | 32093 ft | 433 kts | 202° |
| 2026-05-07 18:05 | 58.53959 | -151.85933 | 32093 ft | 433 kts | 202° |
| 2026-05-07 18:06 | 58.48288 | -151.89843 | 32090 ft | 433 kts | 202° |
| 2026-05-07 18:06 | 58.42620 | -151.93737 | 32097 ft | 433 kts | 202° |
| 2026-05-07 18:07 | 58.36949 | -151.97620 | 32084 ft | 433 kts | 202° |
| 2026-05-07 18:07 | 58.31265 | -152.01499 | 32084 ft | 434 kts | 202° |
| 2026-05-07 18:08 | 58.25583 | -152.05362 | 32086 ft | 434 kts | 202° |
| 2026-05-07 18:08 | 58.19893 | -152.09219 | 32076 ft | 434 kts | 202° |
| 2026-05-07 18:08 | 58.17044 | -152.11146 | 31929 ft | 436 kts | 202° |
| 2026-05-07 18:09 | 58.14174 | -152.13084 | 31070 ft | 433 kts | 202° |
| 2026-05-07 18:09 | 58.11368 | -152.14972 | 30252 ft | 422 kts | 202° |
| 2026-05-07 18:09 | 58.08626 | -152.16816 | 29227 ft | 414 kts | 202° |
| 2026-05-07 18:09 | 58.05918 | -152.18637 | 28278 ft | 413 kts | 202° |
| 2026-05-07 18:10 | 58.03198 | -152.20463 | 27254 ft | 417 kts | 201° |
| 2026-05-07 18:10 | 58.00382 | -152.21913 | 26185 ft | 427 kts | 188° |
| 2026-05-07 18:10 | 57.97416 | -152.21697 | 25499 ft | 443 kts | 173° |
| 2026-05-07 18:10 | 57.94411 | -152.19991 | 24661 ft | 457 kts | 159° |
| 2026-05-07 18:11 | 57.91650 | -152.17077 | 23462 ft | 456 kts | 145° |
| 2026-05-07 18:11 | 57.89406 | -152.12938 | 22134 ft | 453 kts | 128° |
| 2026-05-07 18:11 | 57.87607 | -152.08162 | 20872 ft | 441 kts | 134° |
| 2026-05-07 18:11 | 57.85221 | -152.04754 | 19707 ft | 424 kts | 158° |
| 2026-05-07 18:12 | 57.82460 | -152.03165 | 18652 ft | 410 kts | 172° |
| 2026-05-07 18:12 | 57.79661 | -152.02558 | 17510 ft | 401 kts | 179° |
| 2026-05-07 18:12 | 57.76904 | -152.02550 | 16388 ft | 392 kts | 185° |
| 2026-05-07 18:12 | 57.74266 | -152.03387 | 15307 ft | 382 kts | 202° |
| 2026-05-07 18:13 | 57.72097 | -152.06080 | 14324 ft | 373 kts | 227° |
| 2026-05-07 18:13 | 57.70817 | -152.10197 | 13309 ft | 367 kts | 253° |
| 2026-05-07 18:13 | 57.70655 | -152.14908 | 12261 ft | 364 kts | 278° |
| 2026-05-07 18:13 | 57.71586 | -152.19261 | 11281 ft | 363 kts | 303° |
| 2026-05-07 18:14 | 57.73419 | -152.22455 | 10312 ft | 362 kts | 329° |
| 2026-05-07 18:14 | 57.75793 | -152.23888 | 9494 ft | 357 kts | 352° |
| 2026-05-07 18:14 | 57.78189 | -152.23925 | 9269 ft | 333 kts | 7° |
| 2026-05-07 18:14 | 57.80276 | -152.22467 | 9040 ft | 314 kts | 36° |
| 2026-05-07 18:15 | 57.81673 | -152.19544 | 8911 ft | 293 kts | 58° |
| 2026-05-07 18:15 | 57.82689 | -152.16358 | 8738 ft | 276 kts | 60° |
| 2026-05-07 18:15 | 57.83626 | -152.13255 | 8295 ft | 272 kts | 61° |
| 2026-05-07 18:15 | 57.84539 | -152.10210 | 7839 ft | 269 kts | 61° |
| 2026-05-07 18:16 | 57.85438 | -152.07147 | 7372 ft | 266 kts | 67° |
| 2026-05-07 18:16 | 57.85723 | -152.03800 | 6888 ft | 260 kts | 101° |
| 2026-05-07 18:16 | 57.84938 | -152.00848 | 6440 ft | 254 kts | 136° |
| 2026-05-07 18:16 | 57.83463 | -151.99114 | 5998 ft | 250 kts | 153° |
| 2026-05-07 18:17 | 57.81892 | -151.97694 | 5531 ft | 252 kts | 154° |
| 2026-05-07 18:17 | 57.80307 | -151.96292 | 5052 ft | 252 kts | 153° |
| 2026-05-07 18:17 | 57.78719 | -151.94916 | 4515 ft | 251 kts | 154° |
| 2026-05-07 18:17 | 57.77023 | -151.94221 | 3960 ft | 255 kts | 184° |
| 2026-05-07 18:18 | 57.75380 | -151.95439 | 3412 ft | 259 kts | 212° |
| 2026-05-07 18:18 | 57.73920 | -151.97413 | 2794 ft | 258 kts | 214° |
| 2026-05-07 18:18 | 57.72671 | -151.99740 | 2215 ft | 253 kts | 240° |
| 2026-05-07 18:18 | 57.72394 | -152.02868 | 2031 ft | 246 kts | 278° |
| 2026-05-07 18:19 | 57.73049 | -152.05793 | 1863 ft | 245 kts | 295° |
| 2026-05-07 18:19 | 57.73693 | -152.08744 | 1679 ft | 248 kts | 285° |
| 2026-05-07 18:19 | 57.74116 | -152.11895 | 1620 ft | 250 kts | 278° |
| 2026-05-07 18:19 | 57.74359 | -152.15044 | 1600 ft | 245 kts | 273° |
| 2026-05-07 18:20 | 57.74513 | -152.18189 | 1592 ft | 240 kts | 274° |
| 2026-05-07 18:20 | 57.74666 | -152.21205 | 1573 ft | 220 kts | 271° |
| 2026-05-07 18:20 | 57.74730 | -152.23869 | 1574 ft | 190 kts | 269° |
| 2026-05-07 18:20 | 57.74784 | -152.26204 | 1561 ft | 171 kts | 267° |
| 2026-05-07 18:21 | 57.74805 | -152.28401 | 1524 ft | 167 kts | 268° |
| 2026-05-07 18:21 | 57.74836 | -152.30583 | 1390 ft | 169 kts | 271° |
| 2026-05-07 18:21 | 57.74873 | -152.32726 | 1231 ft | 157 kts | 270° |
| 2026-05-07 18:21 | 57.74908 | -152.34695 | 1051 ft | 148 kts | 270° |
| 2026-05-07 18:22 | 57.74940 | -152.36598 | 913 ft | 148 kts | 270° |
| 2026-05-07 18:22 | 57.74965 | -152.37863 | 834 ft | 146 kts | 271° |
| 2026-05-07 18:22 | 57.75019 | -152.40410 | 671 ft | 146 kts | 271° |
| 2026-05-07 18:22 | 57.75060 | -152.42298 | 510 ft | 145 kts | 270° |
| 2026-05-07 18:23 | 57.75070 | -152.44162 | 375 ft | 141 kts | 269° |
| 2026-05-07 18:23 | 57.75106 | -152.45978 | 273 ft | 141 kts | 270° |
| 2026-05-07 18:23 | 57.75141 | -152.47829 | 120 ft | 143 kts | 270° |
| 2026-05-07 18:23 | 57.75170 | -152.49574 | 65 ft | 118 kts | 271° |
| 2026-05-07 18:24 | 57.75192 | -152.50786 | 71 ft | 44 kts | 272° |
| 2026-05-07 18:24 | 57.75228 | -152.51118 | 66 ft | 23 kts | 301° |
| 2026-05-07 18:24 | 57.75293 | -152.51260 | 63 ft | 8 kts | 329° |
| 2026-05-07 18:24 | 57.75322 | -152.51340 | 69 ft | 8 kts | 277° |
| 2026-05-07 18:25 | 57.75326 | -152.51438 | 63 ft | 8 kts | 273° |
| 2026-05-07 18:25 | 57.75332 | -152.51556 | 70 ft | 10 kts | 284° |
| 2026-05-07 18:25 | 57.75382 | -152.51603 | 67 ft | 9 kts | 41° |
| 2026-05-07 18:25 | 57.75386 | -152.51519 | 71 ft | 3 kts | 89° |
| 2026-05-07 18:26 | 57.75387 | -152.51499 | 68 ft | 0 kts | 88° |
| 2026-05-07 19:06 | 57.75371 | -152.51458 | 76 ft | 6 kts | 141° |
| 2026-05-07 19:06 | 57.75330 | -152.51407 | 67 ft | 8 kts | 122° |
| 2026-05-07 19:07 | 57.75321 | -152.51286 | 70 ft | 11 kts | 107° |
| 2026-05-07 19:07 | 57.75254 | -152.51198 | 65 ft | 14 kts | 146° |
| 2026-05-07 19:07 | 57.75179 | -152.51114 | 60 ft | 13 kts | 139° |
| 2026-05-07 19:07 | 57.75112 | -152.51124 | 71 ft | 12 kts | 260° |
| 2026-05-07 19:08 | 57.75114 | -152.51289 | 71 ft | 13 kts | 273° |
| 2026-05-07 19:08 | 57.75119 | -152.51452 | 70 ft | 10 kts | 276° |
| 2026-05-07 19:08 | 57.75178 | -152.51523 | 63 ft | 12 kts | 351° |
| 2026-05-07 19:08 | 57.75210 | -152.51472 | 69 ft | 4 kts | 92° |
| 2026-05-07 19:09 | 57.75210 | -152.51438 | 66 ft | 0 kts | 91° |
| 2026-05-07 19:09 | 57.75210 | -152.51430 | 67 ft | 0 kts | 91° |
| 2026-05-07 19:10 | 57.75210 | -152.51428 | 67 ft | 1 kts | 91° |
| 2026-05-07 19:10 | 57.75198 | -152.50970 | 67 ft | 77 kts | 92° |
| 2026-05-07 19:10 | 57.75180 | -152.49495 | 83 ft | 148 kts | 90° |
| 2026-05-07 19:11 | 57.75151 | -152.47370 | 653 ft | 168 kts | 92° |
| 2026-05-07 19:11 | 57.75111 | -152.45070 | 1509 ft | 180 kts | 92° |
| 2026-05-07 19:11 | 57.75104 | -152.42727 | 2419 ft | 183 kts | 92° |
| 2026-05-07 19:11 | 57.75243 | -152.40340 | 3274 ft | 195 kts | 69° |
| 2026-05-07 19:12 | 57.75976 | -152.38181 | 3919 ft | 199 kts | 57° |
| 2026-05-07 19:12 | 57.76739 | -152.35981 | 4625 ft | 202 kts | 61° |
| 2026-05-07 19:12 | 57.77575 | -152.33837 | 5413 ft | 211 kts | 41° |
| 2026-05-07 19:12 | 57.78957 | -152.32641 | 5979 ft | 230 kts | 18° |
| 2026-05-07 19:13 | 57.80533 | -152.31796 | 6733 ft | 241 kts | 17° |
| 2026-05-07 19:13 | 57.82174 | -152.30864 | 7468 ft | 252 kts | 17° |
| 2026-05-07 19:13 | 57.83884 | -152.29844 | 8129 ft | 268 kts | 18° |
| 2026-05-07 19:13 | 57.85723 | -152.28717 | 8736 ft | 284 kts | 18° |
| 2026-05-07 19:14 | 57.87610 | -152.27546 | 9662 ft | 287 kts | 17° |
| 2026-05-07 19:14 | 57.89529 | -152.26348 | 10453 ft | 292 kts | 18° |
| 2026-05-07 19:14 | 57.91475 | -152.25123 | 11254 ft | 297 kts | 18° |
| 2026-05-07 19:14 | 57.93448 | -152.23875 | 12028 ft | 302 kts | 17° |
| 2026-05-07 19:15 | 57.95449 | -152.22604 | 12826 ft | 305 kts | 17° |
| 2026-05-07 19:15 | 57.97475 | -152.21314 | 13610 ft | 310 kts | 17° |
| 2026-05-07 19:15 | 57.99536 | -152.19999 | 14285 ft | 315 kts | 17° |
| 2026-05-07 19:15 | 58.01629 | -152.18663 | 14973 ft | 319 kts | 17° |
| 2026-05-07 19:16 | 58.03741 | -152.17312 | 15662 ft | 322 kts | 17° |
| 2026-05-07 19:16 | 58.05878 | -152.15942 | 16327 ft | 327 kts | 17° |
| 2026-05-07 19:16 | 58.08019 | -152.14568 | 16989 ft | 331 kts | 17° |
| 2026-05-07 19:16 | 58.09697 | -152.13490 | 17502 ft | 334 kts | 17° |
| 2026-05-07 19:17 | 58.11911 | -152.12066 | 18174 ft | 338 kts | 17° |
| 2026-05-07 19:17 | 58.14156 | -152.10620 | 18781 ft | 343 kts | 17° |
| 2026-05-07 19:17 | 58.16421 | -152.09159 | 19385 ft | 346 kts | 17° |
| 2026-05-07 19:17 | 58.18709 | -152.07681 | 19989 ft | 349 kts | 17° |
| 2026-05-07 19:18 | 58.21023 | -152.06185 | 20589 ft | 353 kts | 17° |
| 2026-05-07 19:18 | 58.23358 | -152.04671 | 21185 ft | 357 kts | 17° |
| 2026-05-07 19:18 | 58.25723 | -152.03137 | 21783 ft | 361 kts | 16° |
| 2026-05-07 19:18 | 58.28115 | -152.01583 | 22338 ft | 365 kts | 16° |
| 2026-05-07 19:19 | 58.30533 | -152.00011 | 22914 ft | 370 kts | 16° |
| 2026-05-07 19:19 | 58.32973 | -151.98421 | 22964 ft | 371 kts | 16° |
| 2026-05-07 19:19 | 58.35406 | -151.96832 | 22992 ft | 369 kts | 16° |
| 2026-05-07 19:19 | 58.37839 | -151.95243 | 22997 ft | 370 kts | 16° |
| 2026-05-07 19:20 | 58.40285 | -151.93675 | 23003 ft | 370 kts | 14° |
| 2026-05-07 19:20 | 58.42786 | -151.92595 | 23001 ft | 368 kts | 7° |
| 2026-05-07 19:20 | 58.45279 | -151.91826 | 23002 ft | 368 kts | 5° |
| 2026-05-07 19:20 | 58.47813 | -151.91119 | 22999 ft | 368 kts | 5° |
| 2026-05-07 19:21 | 58.50351 | -151.90423 | 22996 ft | 368 kts | 5° |
| 2026-05-07 19:21 | 58.52891 | -151.89713 | 23013 ft | 368 kts | 5° |
| 2026-05-07 19:21 | 58.55427 | -151.88988 | 23005 ft | 369 kts | 5° |
| 2026-05-07 19:21 | 58.57963 | -151.88248 | 22994 ft | 369 kts | 5° |
| 2026-05-07 19:22 | 58.60503 | -151.87496 | 22990 ft | 369 kts | 5° |
| 2026-05-07 19:22 | 58.63036 | -151.86739 | 22991 ft | 369 kts | 5° |
| 2026-05-07 19:22 | 58.65567 | -151.85977 | 22992 ft | 368 kts | 5° |
| 2026-05-07 19:22 | 58.68098 | -151.85212 | 22990 ft | 368 kts | 5° |
| 2026-05-07 19:23 | 58.70631 | -151.84444 | 22996 ft | 368 kts | 5° |
| 2026-05-07 19:23 | 58.73159 | -151.83677 | 23019 ft | 367 kts | 5° |
| 2026-05-07 19:23 | 58.75686 | -151.82908 | 23003 ft | 367 kts | 5° |
| 2026-05-07 19:23 | 58.78211 | -151.82138 | 22998 ft | 367 kts | 5° |
| 2026-05-07 19:24 | 58.80729 | -151.81370 | 22995 ft | 367 kts | 5° |
| 2026-05-07 19:24 | 58.83256 | -151.80598 | 23013 ft | 366 kts | 5° |
| 2026-05-07 19:24 | 58.85772 | -151.79827 | 23004 ft | 366 kts | 5° |
| 2026-05-07 19:24 | 58.88254 | -151.79067 | 22999 ft | 366 kts | 5° |
| 2026-05-07 19:25 | 58.90772 | -151.78294 | 23000 ft | 366 kts | 5° |
| 2026-05-07 19:25 | 58.93282 | -151.77522 | 23001 ft | 366 kts | 5° |
| 2026-05-07 19:25 | 58.95798 | -151.76748 | 23000 ft | 366 kts | 5° |
| 2026-05-07 19:25 | 58.98311 | -151.75973 | 22995 ft | 366 kts | 5° |
| 2026-05-07 19:26 | 59.00825 | -151.75197 | 22993 ft | 366 kts | 5° |
| 2026-05-07 19:26 | 59.03339 | -151.74419 | 22995 ft | 366 kts | 5° |
| 2026-05-07 19:26 | 59.05853 | -151.73641 | 22997 ft | 366 kts | 5° |
| 2026-05-07 19:26 | 59.08365 | -151.72862 | 22998 ft | 366 kts | 5° |
| 2026-05-07 19:27 | 59.10881 | -151.72080 | 23001 ft | 366 kts | 5° |
| 2026-05-07 19:27 | 59.13396 | -151.71298 | 23007 ft | 366 kts | 5° |
| 2026-05-07 19:27 | 59.15919 | -151.70512 | 23007 ft | 367 kts | 5° |
| 2026-05-07 19:27 | 59.18443 | -151.69725 | 23013 ft | 367 kts | 5° |
| 2026-05-07 19:28 | 59.20936 | -151.68949 | 23006 ft | 366 kts | 5° |
| 2026-05-07 19:28 | 59.23450 | -151.68165 | 23023 ft | 366 kts | 5° |
| 2026-05-07 19:28 | 59.25967 | -151.67374 | 23014 ft | 366 kts | 5° |
| 2026-05-07 19:28 | 59.28487 | -151.66581 | 23007 ft | 367 kts | 5° |
| 2026-05-07 19:29 | 59.31002 | -151.65791 | 23010 ft | 367 kts | 5° |
| 2026-05-07 19:29 | 59.33524 | -151.64997 | 23020 ft | 367 kts | 5° |
| 2026-05-07 19:29 | 59.36048 | -151.64194 | 23014 ft | 367 kts | 6° |
| 2026-05-07 19:29 | 59.38567 | -151.63397 | 23006 ft | 367 kts | 5° |
| 2026-05-07 19:30 | 59.41093 | -151.62601 | 23001 ft | 367 kts | 5° |
| 2026-05-07 19:30 | 59.43615 | -151.61809 | 23014 ft | 367 kts | 5° |
| 2026-05-07 19:30 | 59.46176 | -151.60983 | 23049 ft | 382 kts | 6° |
| 2026-05-07 19:30 | 59.48858 | -151.60135 | 23060 ft | 399 kts | 5° |
| 2026-05-07 19:31 | 59.51662 | -151.59256 | 23075 ft | 415 kts | 6° |
| 2026-05-07 19:31 | 59.54566 | -151.58338 | 23118 ft | 429 kts | 6° |
| 2026-05-07 19:31 | 59.57565 | -151.57386 | 23126 ft | 442 kts | 6° |
| 2026-05-07 19:31 | 59.60645 | -151.56403 | 23126 ft | 454 kts | 6° |
| 2026-05-07 19:32 | 59.63793 | -151.55394 | 23123 ft | 464 kts | 6° |
| 2026-05-07 19:32 | 59.67010 | -151.54359 | 23125 ft | 472 kts | 6° |
| 2026-05-07 19:32 | 59.70237 | -151.53317 | 23108 ft | 477 kts | 6° |
| 2026-05-07 19:32 | 59.73502 | -151.52259 | 23111 ft | 474 kts | 6° |
| 2026-05-07 19:33 | 59.76752 | -151.51203 | 23096 ft | 473 kts | 6° |
| 2026-05-07 19:33 | 59.80028 | -151.50137 | 23082 ft | 466 kts | 6° |
| 2026-05-07 19:33 | 59.83126 | -151.49122 | 22883 ft | 450 kts | 6° |
| 2026-05-07 19:33 | 59.86212 | -151.48115 | 22284 ft | 452 kts | 6° |
| 2026-05-07 19:34 | 59.88991 | -151.47217 | 21635 ft | 460 kts | 6° |